createdAt,value
2023-03-06T00:00:56.679Z,0.7
2023-03-06T00:03:03.786Z,0.7
2023-03-06T00:05:04.753Z,0.7
2023-03-06T00:07:03.350Z,0.7
2023-03-06T00:09:02.197Z,0.7
2023-03-06T00:11:00.126Z,0.6
2023-03-06T00:12:56.676Z,0.7
2023-03-06T00:14:57.727Z,0.7
2023-03-06T00:17:02.915Z,0.8
2023-03-06T00:18:56.298Z,0.6
2023-03-06T00:20:59.541Z,0.5
2023-03-06T00:22:59.681Z,0.6
2023-03-06T00:25:05.930Z,0.5
2023-03-06T00:27:03.203Z,0.7
2023-03-06T00:29:01.963Z,0.7
2023-03-06T00:31:04.354Z,0.7
2023-03-06T00:32:59.519Z,0.6
2023-03-06T00:34:58.132Z,0.6
2023-03-06T00:37:00.497Z,0.6
2023-03-06T00:39:00.260Z,0.5
2023-03-06T00:40:59.130Z,0.6
2023-03-06T00:43:05.004Z,0.7
2023-03-06T00:44:58.791Z,0.6
2023-03-06T00:46:56.704Z,0.6
2023-03-06T00:49:04.316Z,0.5
2023-03-06T00:50:58.059Z,0.6
2023-03-06T00:52:58.652Z,0.6
2023-03-06T00:57:01.011Z,0.7
2023-03-06T00:59:01.767Z,0.6
2023-03-06T01:00:56.720Z,0.6
2023-03-06T01:03:06.012Z,0.7
2023-03-06T01:04:59.027Z,0.6
2023-03-06T01:06:56.683Z,0.6
2023-03-06T01:09:00.561Z,0.7
2023-03-06T01:10:58.452Z,0.7
2023-03-06T01:13:03.926Z,0.6
2023-03-06T01:14:59.570Z,0.7
2023-03-06T01:19:01.984Z,0.7
2023-03-06T01:21:04.996Z,0.5
2023-03-06T01:22:58.657Z,0.6
2023-03-06T01:25:03.471Z,0.7
2023-03-06T01:26:56.668Z,0.7
2023-03-06T01:29:02.000Z,0.7
2023-03-06T01:30:57.655Z,0.6
2023-03-06T01:33:04.659Z,0.7
2023-03-06T01:35:01.444Z,0.6
2023-03-06T01:37:02.060Z,0.7
2023-03-06T01:39:03.616Z,0.6
2023-03-06T01:40:56.667Z,0.7
2023-03-06T01:43:04.132Z,0.7
2023-03-06T01:45:04.304Z,0.6
2023-03-06T01:47:05.041Z,0.6
2023-03-06T01:49:04.799Z,0.6
2023-03-06T01:50:59.618Z,0.6
2023-03-06T01:53:05.795Z,0.7
2023-03-06T01:54:58.490Z,0.6
2023-03-06T01:57:05.912Z,0.5
2023-03-06T01:59:00.658Z,0.6
2023-03-06T02:01:04.911Z,0.5
2023-03-06T02:03:05.539Z,0.6
2023-03-06T02:05:06.929Z,0.7
2023-03-06T02:06:56.313Z,0.5
2023-03-06T02:08:56.675Z,0.5
2023-03-06T02:11:06.074Z,0.5
2023-03-06T02:13:02.333Z,0.5
2023-03-06T02:15:02.247Z,0.5
2023-03-06T02:16:58.187Z,0.5
2023-03-06T02:19:03.697Z,0.6
2023-03-06T02:20:59.964Z,0.5
2023-03-06T02:23:05.618Z,0.6
2023-03-06T02:25:07.115Z,0.7
2023-03-06T02:26:58.557Z,0.7
2023-03-06T02:29:00.598Z,0.5
2023-03-06T02:31:04.564Z,0.5
2023-03-06T02:33:05.125Z,0.5
2023-03-06T02:35:00.149Z,0.6
2023-03-06T02:36:57.650Z,0.6
2023-03-06T02:39:05.652Z,0.6
2023-03-06T02:40:58.037Z,0.5
2023-03-06T02:43:02.240Z,0.6
2023-03-06T02:44:59.119Z,0.6
2023-03-06T02:47:00.774Z,0.5
2023-03-06T02:51:05.700Z,0.5
2023-03-06T02:53:06.508Z,0.4
2023-03-06T02:54:59.428Z,0.6
2023-03-06T02:56:59.539Z,0.6
2023-03-06T02:58:59.968Z,0.6
2023-03-06T03:01:03.788Z,0.5
2023-03-06T03:03:03.058Z,0.4
2023-03-06T03:04:59.941Z,0.4
2023-03-06T03:06:59.922Z,0.5
2023-03-06T03:09:02.367Z,0.5
2023-03-06T03:11:00.159Z,0.5
2023-03-06T03:12:59.966Z,0.5
2023-03-06T03:15:04.200Z,0.5
2023-03-06T03:17:01.899Z,0.5
2023-03-06T03:20:58.917Z,0.6
2023-03-06T03:23:04.088Z,0.5
2023-03-06T03:24:59.849Z,0.4
2023-03-06T03:26:59.663Z,0.4
2023-03-06T03:29:00.563Z,0.4
2023-03-06T03:31:00.527Z,0.4
2023-03-06T03:32:56.288Z,0.4
2023-03-06T03:35:05.118Z,0.4
2023-03-06T03:36:57.305Z,0.5
2023-03-06T03:39:00.674Z,0.5
2023-03-06T03:40:56.290Z,0.3
2023-03-06T03:42:58.239Z,0.4
2023-03-06T03:45:02.527Z,0.5
2023-03-06T03:47:01.553Z,0.4
2023-03-06T03:49:01.099Z,0.4
2023-03-06T03:50:56.344Z,0.4
2023-03-06T03:53:05.285Z,0.2
2023-03-06T03:55:02.812Z,0.3
2023-03-06T03:57:04.626Z,0.3
2023-03-06T03:59:04.022Z,0.4
2023-03-06T04:00:57.368Z,0.3
2023-03-06T04:03:01.585Z,0.3
2023-03-06T04:04:57.398Z,0.4
2023-03-06T04:07:06.670Z,0.5
2023-03-06T04:09:05.813Z,0.6
2023-03-06T04:10:59.005Z,0.4
2023-03-06T04:12:58.799Z,0.4
2023-03-06T04:15:03.455Z,0.5
2023-03-06T04:16:59.240Z,0.4
2023-03-06T04:18:56.338Z,0.5
2023-03-06T04:21:01.149Z,0.5
2023-03-06T04:23:04.765Z,0.5
2023-03-06T04:24:59.479Z,0.4
2023-03-06T04:27:00.815Z,0.5
2023-03-06T04:29:00.832Z,0.4
2023-03-06T04:31:01.250Z,0.2
2023-03-06T04:33:03.086Z,0.2
2023-03-06T04:34:59.482Z,0.4
2023-03-06T04:36:57.317Z,0.4
2023-03-06T04:40:57.362Z,0.3
2023-03-06T04:43:03.226Z,0.3
2023-03-06T04:45:01.195Z,0.4
2023-03-06T04:46:56.323Z,0.4
2023-03-06T04:49:06.046Z,0.4
2023-03-06T04:51:02.496Z,0.4
2023-03-06T04:52:59.494Z,0.3
2023-03-06T04:54:59.870Z,0.4
2023-03-06T04:56:59.439Z,0.4
2023-03-06T04:58:57.541Z,0.4
2023-03-06T05:00:59.734Z,0.3
2023-03-06T05:02:59.102Z,0.3
2023-03-06T05:05:01.868Z,0.3
2023-03-06T05:08:59.617Z,0.3
2023-03-06T05:11:03.762Z,0.3
2023-03-06T05:13:03.849Z,0.3
2023-03-06T05:14:59.817Z,0.3
2023-03-06T05:17:05.756Z,0.2
2023-03-06T05:18:59.241Z,0.3
2023-03-06T05:21:00.627Z,0.4
2023-03-06T05:22:59.152Z,0.4
2023-03-06T05:25:03.004Z,0.3
2023-03-06T05:29:01.765Z,0.4
2023-03-06T05:31:03.258Z,0.3
2023-03-06T05:32:59.109Z,0.4
2023-03-06T05:34:56.291Z,0.4
2023-03-06T05:36:56.292Z,0.4
2023-03-06T05:39:01.102Z,0.4
2023-03-06T05:40:59.594Z,0.3
2023-03-06T05:42:57.570Z,0.3
2023-03-06T05:44:59.352Z,0.3
2023-03-06T05:47:05.284Z,0.3
2023-03-06T05:48:56.327Z,0.3
2023-03-06T05:51:00.313Z,0.4
2023-03-06T05:52:56.842Z,0.4
2023-03-06T05:54:56.317Z,0.4
2023-03-06T05:56:57.093Z,0.4
2023-03-06T05:58:56.858Z,0.4
2023-03-06T06:00:56.725Z,0.4
2023-03-06T06:02:59.676Z,0.4
2023-03-06T06:05:01.485Z,0.4
2023-03-06T06:07:00.424Z,0.4
2023-03-06T06:08:56.307Z,0.4
2023-03-06T06:10:56.286Z,0.5
2023-03-06T06:13:04.172Z,0.5
2023-03-06T06:14:56.309Z,0.5
2023-03-06T06:16:58.477Z,0.5
2023-03-06T06:18:56.352Z,0.5
2023-03-06T06:20:59.984Z,0.5
2023-03-06T06:22:59.773Z,0.4
2023-03-06T06:24:58.824Z,0.4
2023-03-06T06:26:58.210Z,0.5
2023-03-06T06:28:57.249Z,0.5
2023-03-06T06:30:56.471Z,0.5
2023-03-06T06:32:56.333Z,0.5
2023-03-06T06:34:56.286Z,0.4
2023-03-06T06:37:00.016Z,0.4
2023-03-06T06:39:02.809Z,0.4
2023-03-06T06:41:27.064Z,0.4
2023-03-06T06:43:00.790Z,0.4
2023-03-06T06:45:06.467Z,0.5
2023-03-06T06:47:22.158Z,0.5
2023-03-06T06:49:00.998Z,0.4
2023-03-06T06:51:04.720Z,0.5
2023-03-06T06:53:01.836Z,0.5
2023-03-06T06:55:02.117Z,0.6
2023-03-06T06:56:59.658Z,0.5
2023-03-06T06:59:03.867Z,0.6
2023-03-06T07:00:56.317Z,0.6
2023-03-06T07:02:57.690Z,0.6
2023-03-06T07:05:06.048Z,0.6
2023-03-06T07:07:01.461Z,0.7
2023-03-06T07:08:57.471Z,0.7
2023-03-06T07:10:59.193Z,0.8
2023-03-06T07:12:59.660Z,0.6
2023-03-06T07:15:03.457Z,0.6
2023-03-06T07:16:56.662Z,0.7
2023-03-06T07:18:59.993Z,0.7
2023-03-06T07:21:01.442Z,0.7
2023-03-06T07:22:57.574Z,0.7
2023-03-06T07:25:02.820Z,0.8
2023-03-06T07:26:56.829Z,0.8
2023-03-06T07:30:26.087Z,0.8
2023-03-06T07:40:24.743Z,0.8
2023-03-06T07:42:25.427Z,0.8
2023-03-06T07:44:27.159Z,0.9
2023-03-06T07:46:25.357Z,0.9
2023-03-06T07:48:21.137Z,0.9
2023-03-06T07:50:26.405Z,0.9
2023-03-06T07:52:25.252Z,1
2023-03-06T07:54:25.180Z,1
2023-03-06T07:58:22.710Z,1.1
2023-03-06T08:00:24.741Z,1.2
2023-03-06T08:02:27.927Z,1.2
2023-03-06T08:04:22.778Z,1.2
2023-03-06T08:06:25.821Z,1.2
2023-03-06T08:08:27.193Z,1.3
2023-03-06T08:10:22.762Z,1.2
2023-03-06T08:12:22.002Z,1.3
2023-03-06T08:14:27.672Z,1.4
2023-03-06T08:16:22.424Z,1.4
2023-03-06T08:18:24.753Z,1.3
2023-03-06T08:22:22.851Z,1.3
2023-03-06T08:24:23.300Z,1.4
2023-03-06T08:28:25.703Z,1.5
2023-03-06T08:30:26.354Z,1.6
2023-03-06T08:34:21.974Z,1.6
2023-03-06T08:36:24.841Z,1.6
2023-03-06T08:40:24.156Z,1.7
2023-03-06T08:42:21.632Z,1.7
2023-03-06T08:44:27.283Z,1.7
2023-03-06T08:46:22.999Z,1.7
2023-03-06T08:48:27.602Z,1.7
2023-03-06T08:52:26.488Z,1.8
2023-03-06T08:54:25.228Z,1.7
2023-03-06T08:56:27.975Z,1.8
2023-03-06T08:58:23.914Z,1.7
2023-03-06T09:00:26.258Z,1.8
2023-03-06T09:02:27.346Z,1.7
2023-03-06T09:04:25.973Z,1.7
2023-03-06T09:06:22.116Z,1.9
2023-03-06T09:08:27.700Z,2
2023-03-06T09:10:27.334Z,2.1
2023-03-06T09:12:23.684Z,2.1
2023-03-06T09:14:27.380Z,2.1
2023-03-06T09:16:21.277Z,2.2
2023-03-06T09:18:21.237Z,2.3
2023-03-06T09:20:27.413Z,2.4
2023-03-06T09:22:23.121Z,2.3
2023-03-06T09:24:27.302Z,2.3
2023-03-06T09:28:26.005Z,2.4
2023-03-06T09:30:21.619Z,2.4
2023-03-06T09:32:27.577Z,2.5
2023-03-06T09:34:25.670Z,2.4
2023-03-06T09:36:24.736Z,2.5
2023-03-06T09:38:27.598Z,2.6
2023-03-06T09:40:27.361Z,2.5
2023-03-06T09:42:21.412Z,2.7
2023-03-06T09:46:23.754Z,2.8
2023-03-06T09:48:26.103Z,2.8
2023-03-06T09:50:27.214Z,2.9
2023-03-06T09:52:23.394Z,3
2023-03-06T09:54:22.760Z,2.8
2023-03-06T09:56:27.295Z,2.8
2023-03-06T09:58:26.111Z,2.7
2023-03-06T10:00:25.329Z,2.8
2023-03-06T10:02:26.910Z,2.8
2023-03-06T10:04:25.937Z,2.8
2023-03-06T10:06:25.551Z,2.8
2023-03-06T10:08:26.876Z,2.8
2023-03-06T10:10:26.951Z,2.8
2023-03-06T10:12:24.652Z,2.9
2023-03-06T10:14:27.304Z,3.1
2023-03-06T10:16:22.692Z,3.1
2023-03-06T10:18:21.282Z,2.9
2023-03-06T10:20:26.759Z,3.1
2023-03-06T10:22:23.040Z,3
2023-03-06T10:24:24.408Z,3
2023-03-06T10:28:27.157Z,3
2023-03-06T10:30:23.492Z,3.2
2023-03-06T10:32:30.532Z,3
2023-03-06T10:34:28.959Z,3.3
2023-03-06T10:36:23.075Z,3.3
2023-03-06T10:40:21.342Z,3.7
2023-03-06T10:42:26.220Z,3.8
2023-03-06T10:44:27.582Z,3.6
2023-03-06T10:46:21.308Z,3.6
2023-03-06T10:48:26.562Z,3.6
2023-03-06T10:50:27.263Z,3.6
2023-03-06T10:52:25.334Z,3.7
2023-03-06T10:54:21.248Z,3.7
2023-03-06T10:56:26.586Z,3.7
2023-03-06T10:58:21.439Z,3.6
2023-03-06T11:00:21.336Z,3.7
2023-03-06T11:02:27.394Z,3.6
2023-03-06T11:04:26.740Z,3.6
2023-03-06T11:06:24.507Z,3.8
2023-03-06T11:08:27.367Z,3.8
2023-03-06T11:10:21.284Z,3.8
2023-03-06T11:12:25.354Z,3.8
2023-03-06T11:16:21.747Z,3.8
2023-03-06T11:18:25.685Z,3.8
2023-03-06T11:20:27.784Z,4.1
2023-03-06T11:22:22.239Z,4.1
2023-03-06T11:24:23.417Z,4.4
2023-03-06T11:28:23.653Z,4.7
2023-03-06T11:30:26.737Z,5.2
2023-03-06T11:32:26.417Z,4.8
2023-03-06T11:34:21.346Z,4.8
2023-03-06T11:36:21.287Z,4.8
2023-03-06T11:38:27.323Z,5.3
2023-03-06T11:40:21.359Z,5.4
2023-03-06T11:42:24.561Z,5.6
2023-03-06T11:46:26.991Z,5.6
2023-03-06T11:48:24.443Z,5.6
2023-03-06T11:52:25.741Z,5.7
2023-03-06T11:54:24.843Z,5.7
2023-03-06T11:56:28.392Z,5.9
2023-03-06T11:58:25.877Z,5.8
2023-03-06T12:00:25.743Z,5.9
2023-03-06T12:02:27.551Z,6
2023-03-06T12:04:23.123Z,6
2023-03-06T12:06:21.376Z,6
2023-03-06T12:08:27.449Z,6
2023-03-06T12:10:21.357Z,6
2023-03-06T12:12:22.311Z,6
2023-03-06T12:14:27.565Z,5.9
2023-03-06T12:16:25.414Z,5.9
2023-03-06T12:18:24.864Z,5.9
2023-03-06T12:20:27.343Z,5.9
2023-03-06T12:22:26.212Z,6
2023-03-06T12:24:23.428Z,5.8
2023-03-06T12:28:25.992Z,5.6
2023-03-06T12:30:23.566Z,5.4
2023-03-06T12:32:27.426Z,5.4
2023-03-06T12:34:23.497Z,5.4
2023-03-06T12:36:24.884Z,5.3
2023-03-06T12:40:23.141Z,5.2
2023-03-06T12:42:23.353Z,5.3
2023-03-06T12:46:23.758Z,5.2
2023-03-06T12:48:21.342Z,4.9
2023-03-06T12:50:26.846Z,5.4
2023-03-06T12:52:30.152Z,5.2
2023-03-06T12:54:24.508Z,5.3
2023-03-06T12:56:27.720Z,5.1
2023-03-06T12:58:21.286Z,5.2
2023-03-06T13:00:25.435Z,4.9
2023-03-06T13:02:27.505Z,5.1
2023-03-06T13:04:21.400Z,5.1
2023-03-06T13:06:24.108Z,4.7
2023-03-06T13:10:21.379Z,4.7
2023-03-06T13:12:21.391Z,5
2023-03-06T13:14:27.427Z,5
2023-03-06T13:16:24.161Z,5
2023-03-06T13:18:26.847Z,4.9
2023-03-06T13:20:27.571Z,5.1
2023-03-06T13:22:21.686Z,5.2
2023-03-06T13:24:23.449Z,5.5
2023-03-06T13:26:27.597Z,5
2023-03-06T13:28:23.695Z,5.3
2023-03-06T13:30:25.870Z,5.6
2023-03-06T13:34:25.051Z,5.5
2023-03-06T13:36:25.068Z,5.7
2023-03-06T13:38:27.118Z,6.1
2023-03-06T13:40:26.768Z,6.2
2023-03-06T13:42:24.964Z,6.2
2023-03-06T13:44:25.891Z,6.2
2023-03-06T13:46:25.414Z,6.1
2023-03-06T13:48:43.434Z,5.8
2023-03-06T13:52:26.036Z,4.7
2023-03-06T13:54:26.114Z,4.4
2023-03-06T13:57:08.151Z,4.1
2023-03-06T13:59:08.582Z,4.2
2023-03-06T14:01:04.765Z,4.3
2023-03-06T14:03:03.271Z,4
2023-03-06T14:05:04.878Z,3.6
2023-03-06T14:07:06.234Z,3.2
2023-03-06T14:09:06.383Z,3.1
2023-03-06T14:11:05.140Z,3
2023-03-06T14:13:06.764Z,2.6
2023-03-06T14:15:05.498Z,2.7
2023-03-06T14:17:07.076Z,2.7
2023-03-06T14:19:04.808Z,2.8
2023-03-06T14:21:03.832Z,2.8
2023-03-06T14:23:05.508Z,2.7
2023-03-06T14:25:02.931Z,2.7
2023-03-06T14:27:05.224Z,2.8
2023-03-06T14:29:03.569Z,2.9
2023-03-06T14:31:02.436Z,3.1
2023-03-06T14:33:04.152Z,3
2023-03-06T14:35:04.467Z,3.2
2023-03-06T14:37:07.239Z,3
2023-03-06T14:39:03.526Z,3.3
2023-03-06T14:41:04.379Z,3.3
2023-03-06T14:43:05.498Z,3.3
2023-03-06T14:45:00.749Z,3.2
2023-03-06T14:47:06.167Z,3.2
2023-03-06T14:49:00.713Z,3.3
2023-03-06T14:51:00.801Z,3.3
2023-03-06T14:53:07.575Z,3.5
2023-03-06T14:55:04.465Z,3.3
2023-03-06T14:59:04.589Z,3.1
2023-03-06T15:01:03.508Z,3.3
2023-03-06T15:03:08.558Z,3.2
2023-03-06T15:05:08.252Z,3.1
2023-03-06T15:07:08.288Z,3
2023-03-06T15:09:07.256Z,3.1
2023-03-06T15:11:07.340Z,3.2
2023-03-06T15:13:09.144Z,3.2
2023-03-06T15:15:04.603Z,3.3
2023-03-06T15:17:03.484Z,3.4
2023-03-06T15:19:08.519Z,3.4
2023-03-06T15:21:07.721Z,3.2
2023-03-06T15:23:04.596Z,3.2
2023-03-06T15:25:00.904Z,3.2
2023-03-06T15:27:05.539Z,3.3
2023-03-06T15:29:09.796Z,3.1
2023-03-06T15:31:08.236Z,3.1
2023-03-06T15:33:01.382Z,3.2
2023-03-06T15:35:02.330Z,3.4
2023-03-06T15:37:08.935Z,3.5
2023-03-06T15:39:01.548Z,3.6
2023-03-06T15:41:04.352Z,3.6
2023-03-06T15:43:05.571Z,3.4
2023-03-06T15:45:03.309Z,3.4
2023-03-06T15:47:09.361Z,3.5
2023-03-06T15:49:04.341Z,3.3
2023-03-06T15:51:06.088Z,3.3
2023-03-06T15:53:08.571Z,3.3
2023-03-06T15:55:06.782Z,3.3
2023-03-06T15:57:05.504Z,3.3
2023-03-06T15:59:06.975Z,3.3
2023-03-06T16:01:04.993Z,3.2
2023-03-06T16:03:01.315Z,3.2
2023-03-06T16:05:03.058Z,3
2023-03-06T16:07:06.159Z,3
2023-03-06T16:09:08.927Z,3.1
2023-03-06T16:11:08.593Z,3
2023-03-06T16:13:02.290Z,2.9
2023-03-06T16:15:05.646Z,2.9
2023-03-06T16:17:04.768Z,3
2023-03-06T16:19:09.423Z,3.1
2023-03-06T16:21:02.703Z,2.9
2023-03-06T16:23:05.577Z,2.9
2023-03-06T16:25:03.674Z,2.9
2023-03-06T16:27:03.355Z,2.9
2023-03-06T16:29:05.115Z,2.8
2023-03-06T16:31:01.862Z,2.8
2023-03-06T16:33:05.575Z,2.8
2023-03-06T16:35:06.997Z,2.8
2023-03-06T16:37:08.219Z,2.8
2023-03-06T16:39:02.055Z,2.8
2023-03-06T16:41:08.879Z,2.8
2023-03-06T16:43:08.379Z,2.7
2023-03-06T16:45:01.955Z,2.8
2023-03-06T16:47:08.061Z,2.8
2023-03-06T16:49:07.249Z,2.7
2023-03-06T16:51:04.397Z,2.7
2023-03-06T16:53:04.030Z,2.6
2023-03-06T16:55:07.207Z,2.6
2023-03-06T16:57:04.350Z,2.5
2023-03-06T16:59:06.951Z,2.5
2023-03-06T17:01:05.269Z,2.5
2023-03-06T17:03:02.262Z,2.5
2023-03-06T17:05:08.346Z,2.5
2023-03-06T17:07:08.150Z,2.5
2023-03-06T17:09:05.134Z,2.5
2023-03-06T17:11:04.227Z,2.5
2023-03-06T17:13:07.380Z,2.5
2023-03-06T17:15:06.877Z,2.5
2023-03-06T17:17:05.717Z,2.4
2023-03-06T17:19:03.828Z,2.4
2023-03-06T17:21:05.937Z,2.3
2023-03-06T17:23:08.095Z,2.3
2023-03-06T17:25:02.067Z,2.3
2023-03-06T17:27:08.072Z,2.4
2023-03-06T17:29:07.075Z,2.3
2023-03-06T17:31:04.062Z,2.3
2023-03-06T17:33:08.323Z,2.3
2023-03-06T17:35:08.890Z,2.3
2023-03-06T17:37:02.983Z,2.3
2023-03-06T17:39:05.930Z,2.3
2023-03-06T17:41:05.049Z,2.3
2023-03-06T17:43:10.284Z,2.3
2023-03-06T17:45:04.486Z,2.2
2023-03-06T17:47:06.897Z,2.3
2023-03-06T17:49:08.592Z,2.3
2023-03-06T17:51:06.464Z,2.3
2023-03-06T17:53:08.547Z,2.2
2023-03-06T17:55:09.575Z,2.3
2023-03-06T17:57:05.014Z,2.2
2023-03-06T17:59:05.030Z,2.2
2023-03-06T18:01:04.556Z,2.2
2023-03-06T18:03:05.683Z,2.2
2023-03-06T18:05:06.524Z,2.2
2023-03-06T18:07:05.686Z,2.2
2023-03-06T18:09:04.769Z,2.2
2023-03-06T18:11:06.289Z,2.2
2023-03-06T18:13:13.093Z,2.2
2023-03-06T18:15:09.201Z,2.2
2023-03-06T18:17:06.684Z,2.2
2023-03-06T18:19:06.343Z,2.2
2023-03-06T18:21:04.942Z,2.1
2023-03-06T18:23:07.614Z,2.2
2023-03-06T18:25:04.671Z,2.1
2023-03-06T18:27:08.685Z,2.1
2023-03-06T18:29:04.424Z,2.2
2023-03-06T18:31:08.847Z,2.1
2023-03-06T18:33:06.652Z,2.2
2023-03-06T18:35:10.004Z,2.1
2023-03-06T18:37:07.444Z,2.1
2023-03-06T18:39:08.900Z,2.1
2023-03-06T18:41:08.896Z,2.1
2023-03-06T18:43:07.116Z,2.1
2023-03-06T18:45:06.216Z,2.1
2023-03-06T18:47:07.458Z,2
2023-03-06T18:49:08.046Z,2
2023-03-06T18:51:05.061Z,2
2023-03-06T18:53:05.338Z,2.1
2023-03-06T18:55:05.489Z,2.1
2023-03-06T18:57:10.068Z,2.1
2023-03-06T18:59:11.319Z,2
2023-03-06T19:01:03.378Z,2
2023-03-06T19:03:11.639Z,2
2023-03-06T19:05:06.492Z,2
2023-03-06T19:09:05.997Z,2
2023-03-06T19:11:05.291Z,1.9
2023-03-06T19:13:06.284Z,2
2023-03-06T19:15:08.828Z,2
2023-03-06T19:17:03.854Z,1.9
2023-03-06T19:19:03.580Z,1.9
2023-03-06T19:21:05.411Z,1.9
2023-03-06T19:23:08.559Z,1.9
2023-03-06T19:25:07.229Z,1.9
2023-03-06T19:27:08.988Z,1.9
2023-03-06T19:29:08.233Z,1.9
2023-03-06T19:31:04.368Z,1.9
2023-03-06T19:33:06.454Z,1.9
2023-03-06T19:35:09.873Z,1.9
2023-03-06T19:37:06.002Z,2
2023-03-06T19:39:08.720Z,1.9
2023-03-06T19:41:08.771Z,1.8
2023-03-06T19:43:05.855Z,1.9
2023-03-06T19:45:07.609Z,1.8
2023-03-06T19:47:07.746Z,1.8
2023-03-06T19:49:11.411Z,1.8
2023-03-06T19:51:08.688Z,1.9
2023-03-06T19:53:06.306Z,1.9
2023-03-06T19:55:08.277Z,1.9
2023-03-06T19:57:09.071Z,1.9
2023-03-06T19:59:11.527Z,1.9
2023-03-06T20:01:07.252Z,1.9
2023-03-06T20:03:08.397Z,1.9
2023-03-06T20:05:11.621Z,1.9
2023-03-06T20:07:11.284Z,1.9
2023-03-06T20:09:06.198Z,2
2023-03-06T20:11:08.845Z,2
2023-03-06T20:13:09.029Z,1.9
2023-03-06T20:15:06.317Z,1.9
2023-03-06T20:17:07.168Z,1.9
2023-03-06T20:19:10.309Z,1.9
2023-03-06T20:21:11.744Z,1.9
2023-03-06T20:23:12.460Z,1.9
2023-03-06T20:25:06.550Z,1.9
2023-03-06T20:27:08.248Z,1.8
2023-03-06T20:29:11.642Z,1.9
2023-03-06T20:31:08.055Z,1.9
2023-03-06T20:33:13.680Z,1.8
2023-03-06T20:35:07.889Z,1.8
2023-03-06T20:37:07.984Z,1.8
2023-03-06T20:39:12.283Z,1.8
2023-03-06T20:41:09.174Z,1.8
2023-03-06T20:43:07.048Z,1.7
2023-03-06T20:45:10.358Z,1.7
2023-03-06T20:47:07.199Z,1.7
2023-03-06T20:49:11.196Z,1.7
2023-03-06T20:51:07.952Z,1.7
2023-03-06T20:53:11.119Z,1.7
2023-03-06T20:55:07.391Z,1.7
2023-03-06T20:57:05.632Z,1.7
2023-03-06T20:59:09.615Z,1.7
2023-03-06T21:01:07.025Z,1.6
2023-03-06T21:03:09.695Z,1.7
2023-03-06T21:05:08.671Z,1.7
2023-03-06T21:07:10.742Z,1.7
2023-03-06T21:09:13.545Z,1.7
2023-03-06T21:11:05.821Z,1.7
2023-03-06T21:13:08.801Z,1.7
2023-03-06T21:15:12.998Z,1.7
2023-03-06T21:17:07.375Z,1.7
2023-03-06T21:19:11.716Z,1.7
2023-03-06T21:21:11.181Z,1.7
2023-03-06T21:23:10.873Z,1.7
2023-03-06T21:25:13.555Z,1.7
2023-03-06T21:27:09.053Z,1.7
2023-03-06T21:29:07.732Z,1.6
2023-03-06T21:31:09.170Z,1.7
2023-03-06T21:33:11.199Z,1.6
2023-03-06T21:35:12.157Z,1.6
2023-03-06T21:37:17.102Z,1.6
2023-03-06T21:39:06.588Z,1.6
2023-03-06T21:41:10.312Z,1.6
2023-03-06T21:43:13.670Z,1.7
2023-03-06T21:45:10.856Z,1.6
2023-03-06T21:47:07.145Z,1.6
2023-03-06T21:51:07.246Z,1.6
2023-03-06T21:53:13.769Z,1.6
2023-03-06T21:55:11.209Z,1.6
2023-03-06T21:57:14.602Z,1.6
2023-03-06T21:59:12.849Z,1.6
2023-03-06T22:01:07.532Z,1.6
2023-03-06T22:03:11.866Z,1.6
2023-03-06T22:05:09.497Z,1.6
2023-03-06T22:07:10.356Z,1.6
2023-03-06T22:09:14.650Z,1.6
2023-03-06T22:11:10.603Z,1.6
2023-03-06T22:13:07.187Z,1.6
2023-03-06T22:15:10.519Z,1.6
2023-03-06T22:17:07.620Z,1.6
2023-03-06T22:19:11.060Z,1.5
2023-03-06T22:21:13.818Z,1.6
2023-03-06T22:23:11.800Z,1.5
2023-03-06T22:25:07.143Z,1.5
2023-03-06T22:27:07.177Z,1.5
2023-03-06T22:29:11.622Z,1.5
2023-03-06T22:31:08.959Z,1.5
2023-03-06T22:33:08.621Z,1.6
2023-03-06T22:35:11.326Z,1.6
2023-03-06T22:37:11.336Z,1.5
2023-03-06T22:39:10.281Z,1.6
2023-03-06T22:41:11.843Z,1.5
2023-03-06T22:43:10.546Z,1.6
2023-03-06T22:45:13.600Z,1.5
2023-03-06T22:47:07.182Z,1.5
2023-03-06T22:49:07.243Z,1.6
2023-03-06T22:51:11.296Z,1.5
2023-03-06T22:53:13.457Z,1.5
2023-03-06T22:55:13.665Z,1.5
2023-03-06T22:57:10.929Z,1.5
2023-03-06T22:59:09.413Z,1.5
2023-03-06T23:01:10.089Z,1.4
2023-03-06T23:03:13.300Z,1.4
2023-03-06T23:05:09.494Z,1.5
2023-03-06T23:07:12.666Z,1.4
2023-03-06T23:09:11.436Z,1.4
2023-03-06T23:11:13.140Z,1.5
2023-03-06T23:13:09.178Z,1.4
2023-03-06T23:15:08.995Z,1.4
2023-03-06T23:17:09.087Z,1.4
2023-03-06T23:19:10.992Z,1.4
2023-03-06T23:21:11.829Z,1.4
2023-03-06T23:23:13.286Z,1.4
2023-03-06T23:25:11.555Z,1.4
2023-03-06T23:29:09.190Z,1.4
2023-03-06T23:31:11.165Z,1.4
2023-03-06T23:33:12.579Z,1.4
2023-03-06T23:35:57.984Z,1.4
2023-03-06T23:39:57.117Z,1.4
2023-03-06T23:41:58.456Z,1.5
2023-03-06T23:44:02.826Z,1.5
2023-03-06T23:45:57.222Z,1.5
2023-03-06T23:47:57.072Z,1.4
2023-03-06T23:51:55.755Z,1.5
2023-03-06T23:53:57.950Z,1.5
2023-03-06T23:56:03.094Z,1.5
2023-03-06T23:57:55.878Z,1.4
2023-03-06T23:59:58.378Z,1.5
